Africa, Pennsylvania
Current Conditions -  °F | °C
As of 12:53 AM on Wednesday 28 Jan 2015 (Local Time) from KHGR Reporting Station
Clear Clear  
Wind Chill:   Ceiling: Unl
Heat Index: 21°   Visibility: 10mi
Dew Point:   Wind: 14mph
Humidity: 60%   Direction: 320°NW
Pressure: 30.04"   Gusts: 24mph
Location:  39.8035°N, 77.9346°W
Report Text: KHGR 280553Z AUTO 32012G21KT 10SM CLR M06/M13 A3004 RMK AO2 SLP191 T10611128 11028 21061 51031 TSNO
Loading
Personal Weather Stations






























Interactive Weather Map New forecast layout! Learn more

10-Day Weather Forecast

Advertisements
Track Severe Weather on mobile